Explora — IXWQ — position and weather

sailwx.info

Track history (hours):
 
Tides and Currents Weather Stations Pressure Air Temp Water Temp Dewpoint Dewpoint Depression Visibility Wind Speed Wind Dir Waves Ship Positions

Oceanographic research ship Explora (Italy)

Detailed information on ship capabilities available from University of Delaware's Ocean Information Center.

Last reported at 2015-Aug-15 18:33 UTC. Time now 2015-Aug-30 22:34 UTC.
Position N 69°41' E 019°00'.
Warning: this ship's position is 15 days out of date.

Length 73 m; draft 5.5 m.

Type: Dredging. MMSI: 247028700.

Date/timePositionNaut miles runAvg speedWind from/ knotsBaromVisibWave heightAir tempDewpointWater temp
2015-Aug-15 18:33N 69°41' E 019°00'1 0.1
2015-Aug-15 10:28N 69°41' E 018°59'0 0.0
2015-Aug-15 08:32N 69°41' E 018°59'0 0.0
2015-Aug-15 07:33N 69°41' E 018°59'0 0.0
2015-Aug-15 06:33N 69°41' E 018°59'0 0.0
2015-Aug-15 05:24N 69°41' E 018°59'0 0.0
2015-Aug-15 04:32N 69°41' E 018°59'0 0.0
2015-Aug-15 03:33N 69°41' E 018°59'0 0.0
2015-Aug-15 02:33N 69°41' E 018°59'0 0.0
2015-Aug-15 01:33N 69°41' E 018°59'0 0.0
2015-Aug-15 00:33N 69°41' E 018°59'0 0.0
2015-Aug-14 23:33N 69°41' E 018°59'0 0.0
2015-Aug-14 22:33N 69°41' E 018°59'0 0.0
2015-Aug-14 21:33N 69°41' E 018°59'0 0.0
2015-Aug-14 20:33N 69°41' E 018°59'0 0.0
2015-Aug-14 19:33N 69°41' E 018°59'0 0.0
2015-Aug-14 18:33N 69°41' E 018°59'0 0.0
2015-Aug-14 17:33N 69°41' E 018°59'0 0.0
2015-Aug-14 16:33N 69°41' E 018°59'0 0.0
2015-Aug-14 15:33N 69°41' E 018°59'0 0.0
2015-Aug-14 14:33N 69°41' E 018°59'0 0.0
2015-Aug-14 13:29N 69°41' E 018°59'0 0.0
2015-Aug-14 12:30N 69°41' E 018°59'0 0.0
2015-Aug-14 11:32N 69°41' E 018°59'0 0.0
2015-Aug-14 10:30N 69°41' E 018°59'0 0.0
2015-Aug-14 09:33N 69°41' E 018°59'0 0.0
2015-Aug-14 08:33N 69°41' E 018°59'0 0.0
2015-Aug-14 07:31N 69°41' E 018°59'0 0.0
2015-Aug-14 05:33N 69°41' E 018°59'0 0.0
2015-Aug-14 04:33N 69°41' E 018°59'0 0.0
2015-Aug-14 03:28N 69°41' E 018°59'0 0.0
2015-Aug-14 02:28N 69°41' E 018°59'0 0.0
2015-Aug-14 01:33N 69°41' E 018°59'0 0.0
2015-Aug-14 00:33N 69°41' E 018°59'0 0.0
2015-Aug-13 23:33N 69°41' E 018°59'0 0.0
2015-Aug-13 22:33N 69°41' E 018°59'0 0.0
2015-Aug-13 21:31N 69°41' E 018°59'0 0.0
2015-Aug-13 20:32N 69°41' E 018°59'0 0.0
2015-Aug-13 19:33N 69°41' E 018°59'0 0.0
2015-Aug-13 18:22N 69°41' E 018°59'0 0.0
2015-Aug-13 17:20N 69°41' E 018°59'0 0.0
2015-Aug-13 13:26N 69°41' E 018°59'0 0.0
2015-Aug-13 12:32N 69°41' E 018°59'0 0.0
2015-Aug-13 11:33N 69°41' E 018°59'2 0.5
2015-Aug-13 07:33N 69°42' E 019°04'  
2015-Aug-09 04:33N 55°40' E 005°40'1612.7
2015-Aug-09 03:17N 55°27' E 005°57'5 7.3
2015-Aug-09 02:33N 55°22' E 006°03'1110.7
2015-Aug-09 01:33N 55°14' E 006°14'1110.7
2015-Aug-09 00:33N 55°05' E 006°25'1110.9
2015-Aug-08 23:33N 54°56' E 006°36'1111.3
2015-Aug-08 22:33N 54°47' E 006°47'1111.4
2015-Aug-08 21:33N 54°38' E 006°59'1211.6
2015-Aug-08 20:33N 54°28' E 007°10'1211.8
2015-Aug-08 19:33N 54°19' E 007°22'1111.2
2015-Aug-08 18:33N 54°09' E 007°32'1010.6
2015-Aug-08 17:33N 53°60' E 007°40'9 9.3
2015-Aug-08 16:33N 53°53' E 007°50'8 7.7
2015-Aug-08 15:33N 53°51' E 008°03'8 8.1
2015-Aug-08 14:34N 53°45' E 008°13'8 8.1
2015-Aug-08 13:33N 53°40' E 008°23'8 8.0
2015-Aug-08 12:33N 53°34' E 008°33'0 0.2
2015-Aug-08 11:29N 53°34' E 008°33'0 0.0
2015-Aug-08 10:32N 53°34' E 008°33'0 0.0
2015-Aug-08 09:32N 53°34' E 008°33'0 0.0
2015-Aug-08 08:32N 53°34' E 008°33'0 0.0
2015-Aug-08 07:32N 53°34' E 008°33'0 0.0
2015-Aug-08 06:32N 53°34' E 008°33'0 0.0
2015-Aug-08 05:32N 53°34' E 008°33'0 0.0
2015-Aug-08 04:32N 53°34' E 008°33'0 0.0
2015-Aug-08 03:32N 53°34' E 008°33'0 0.0
2015-Aug-08 02:32N 53°34' E 008°33'0 0.0
2015-Aug-08 01:32N 53°34' E 008°33'0 0.0
2015-Aug-08 00:32N 53°34' E 008°33'0 0.0
2015-Aug-07 23:31N 53°34' E 008°33'0 0.0
2015-Aug-07 22:31N 53°34' E 008°33'0 0.0
2015-Aug-07 21:31N 53°34' E 008°33'0 0.0
2015-Aug-07 20:31N 53°34' E 008°33'0 0.0
2015-Aug-07 19:31N 53°34' E 008°33'0 0.0
2015-Aug-07 18:31N 53°34' E 008°33'0 0.0
2015-Aug-07 17:31N 53°34' E 008°33'0 0.0
2015-Aug-07 16:31N 53°34' E 008°33'0 0.0
2015-Aug-07 15:31N 53°34' E 008°33'0 0.0
2015-Aug-07 14:31N 53°34' E 008°33'0 0.0
2015-Aug-07 13:31N 53°34' E 008°33'0 0.0
2015-Aug-07 12:31N 53°34' E 008°33'0 0.0
2015-Aug-07 11:31N 53°34' E 008°33'0 0.0
2015-Aug-07 10:31N 53°34' E 008°33'0 0.0
2015-Aug-07 09:31N 53°34' E 008°33'0 0.0
2015-Aug-07 08:31N 53°34' E 008°33'0 0.0
2015-Aug-07 07:31N 53°34' E 008°33'0 0.0
2015-Aug-07 06:31N 53°34' E 008°33'0 0.0
2015-Aug-07 05:31N 53°34' E 008°33'0 0.0
2015-Aug-07 04:31N 53°34' E 008°33'0 0.0
2015-Aug-07 03:31N 53°34' E 008°33'0 0.0
2015-Aug-07 02:31N 53°34' E 008°33'0 0.0
2015-Aug-07 01:31N 53°34' E 008°33'0 0.0
2015-Aug-07 00:31N 53°34' E 008°33'0 0.0
2015-Aug-06 23:31N 53°34' E 008°33'0 0.0
2015-Aug-06 22:31N 53°34' E 008°33'0 0.0
2015-Aug-06 21:31N 53°34' E 008°33'0 0.0
2015-Aug-06 20:31N 53°34' E 008°33'0 0.0
2015-Aug-06 19:31N 53°34' E 008°33'0 0.0
2015-Aug-06 18:31N 53°34' E 008°33'0 0.0
2015-Aug-06 17:31N 53°34' E 008°33'0 0.0
2015-Aug-06 16:31N 53°34' E 008°33'0 0.0
2015-Aug-06 15:31N 53°34' E 008°33'0 0.0
2015-Aug-06 14:31N 53°34' E 008°33'0 0.0
2015-Aug-06 13:34N 53°34' E 008°33'0 0.0
2015-Aug-06 12:34N 53°34' E 008°33'0 0.0
2015-Aug-06 11:33N 53°34' E 008°33'0 0.0
2015-Aug-06 10:33N 53°34' E 008°33'0 0.0
2015-Aug-06 09:33N 53°34' E 008°33'0 0.0
2015-Aug-06 08:33N 53°34' E 008°33'0 0.0
2015-Aug-06 07:30N 53°34' E 008°33'0 0.0
2015-Aug-06 06:33N 53°34' E 008°33'0 0.0
2015-Aug-06 05:33N 53°34' E 008°33'0 0.0
2015-Aug-06 04:33N 53°34' E 008°33'0 0.0
2015-Aug-06 03:33N 53°34' E 008°33'0 0.0
2015-Aug-06 02:33N 53°34' E 008°33'0 0.0
2015-Aug-06 01:33N 53°34' E 008°33'0 0.0
2015-Aug-06 00:33N 53°34' E 008°33'0 0.0
2015-Aug-05 23:30N 53°34' E 008°33'0 0.0
2015-Aug-05 22:33N 53°34' E 008°33'0 0.0
2015-Aug-05 21:33N 53°34' E 008°33'0 0.0
2015-Aug-05 20:33N 53°34' E 008°33'0 0.0
2015-Aug-05 19:30N 53°34' E 008°33'  
Track history (hours):
 
Tides and Currents Weather Stations Pressure Air Temp Water Temp Dewpoint Dewpoint Depression Visibility Wind Speed Wind Dir Waves Ship Positions

Oceanographic research ship Explora (Italy)

Detailed information on ship capabilities available from University of Delaware's Ocean Information Center.

Last reported at 2015-Aug-15 18:33 UTC. Time now 2015-Aug-30 22:34 UTC.
Position N 69°41' E 019°00'.
Warning: this ship's position is 15 days out of date.

Length 73 m; draft 5.5 m.

Type: Dredging. MMSI: 247028700.

Date/timePositionNaut miles runAvg speedWind from/ knotsBaromVisibWave heightAir tempDewpointWater temp
2015-Aug-15 18:33N 69°41' E 019°00'1 0.1
2015-Aug-15 10:28N 69°41' E 018°59'0 0.0
2015-Aug-15 08:32N 69°41' E 018°59'0 0.0
2015-Aug-15 07:33N 69°41' E 018°59'0 0.0
2015-Aug-15 06:33N 69°41' E 018°59'0 0.0
2015-Aug-15 05:24N 69°41' E 018°59'0 0.0
2015-Aug-15 04:32N 69°41' E 018°59'0 0.0
2015-Aug-15 03:33N 69°41' E 018°59'0 0.0
2015-Aug-15 02:33N 69°41' E 018°59'0 0.0
2015-Aug-15 01:33N 69°41' E 018°59'0 0.0
2015-Aug-15 00:33N 69°41' E 018°59'0 0.0
2015-Aug-14 23:33N 69°41' E 018°59'0 0.0
2015-Aug-14 22:33N 69°41' E 018°59'0 0.0
2015-Aug-14 21:33N 69°41' E 018°59'0 0.0
2015-Aug-14 20:33N 69°41' E 018°59'0 0.0
2015-Aug-14 19:33N 69°41' E 018°59'0 0.0
2015-Aug-14 18:33N 69°41' E 018°59'0 0.0
2015-Aug-14 17:33N 69°41' E 018°59'0 0.0
2015-Aug-14 16:33N 69°41' E 018°59'0 0.0
2015-Aug-14 15:33N 69°41' E 018°59'0 0.0
2015-Aug-14 14:33N 69°41' E 018°59'0 0.0
2015-Aug-14 13:29N 69°41' E 018°59'0 0.0
2015-Aug-14 12:30N 69°41' E 018°59'0 0.0
2015-Aug-14 11:32N 69°41' E 018°59'0 0.0
2015-Aug-14 10:30N 69°41' E 018°59'0 0.0
2015-Aug-14 09:33N 69°41' E 018°59'0 0.0
2015-Aug-14 08:33N 69°41' E 018°59'0 0.0
2015-Aug-14 07:31N 69°41' E 018°59'0 0.0
2015-Aug-14 05:33N 69°41' E 018°59'0 0.0
2015-Aug-14 04:33N 69°41' E 018°59'0 0.0
2015-Aug-14 03:28N 69°41' E 018°59'0 0.0
2015-Aug-14 02:28N 69°41' E 018°59'0 0.0
2015-Aug-14 01:33N 69°41' E 018°59'0 0.0
2015-Aug-14 00:33N 69°41' E 018°59'0 0.0
2015-Aug-13 23:33N 69°41' E 018°59'0 0.0
2015-Aug-13 22:33N 69°41' E 018°59'0 0.0
2015-Aug-13 21:31N 69°41' E 018°59'0 0.0
2015-Aug-13 20:32N 69°41' E 018°59'0 0.0
2015-Aug-13 19:33N 69°41' E 018°59'0 0.0
2015-Aug-13 18:22N 69°41' E 018°59'0 0.0
2015-Aug-13 17:20N 69°41' E 018°59'0 0.0
2015-Aug-13 13:26N 69°41' E 018°59'0 0.0
2015-Aug-13 12:32N 69°41' E 018°59'0 0.0
2015-Aug-13 11:33N 69°41' E 018°59'2 0.5
2015-Aug-13 07:33N 69°42' E 019°04'  
2015-Aug-09 04:33N 55°40' E 005°40'1612.7
2015-Aug-09 03:17N 55°27' E 005°57'5 7.3
2015-Aug-09 02:33N 55°22' E 006°03'1110.7
2015-Aug-09 01:33N 55°14' E 006°14'1110.7
2015-Aug-09 00:33N 55°05' E 006°25'1110.9
2015-Aug-08 23:33N 54°56' E 006°36'1111.3
2015-Aug-08 22:33N 54°47' E 006°47'1111.4
2015-Aug-08 21:33N 54°38' E 006°59'1211.6
2015-Aug-08 20:33N 54°28' E 007°10'1211.8
2015-Aug-08 19:33N 54°19' E 007°22'1111.2
2015-Aug-08 18:33N 54°09' E 007°32'1010.6
2015-Aug-08 17:33N 53°60' E 007°40'9 9.3
2015-Aug-08 16:33N 53°53' E 007°50'8 7.7
2015-Aug-08 15:33N 53°51' E 008°03'8 8.1
2015-Aug-08 14:34N 53°45' E 008°13'8 8.1
2015-Aug-08 13:33N 53°40' E 008°23'8 8.0
2015-Aug-08 12:33N 53°34' E 008°33'0 0.2
2015-Aug-08 11:29N 53°34' E 008°33'0 0.0
2015-Aug-08 10:32N 53°34' E 008°33'0 0.0
2015-Aug-08 09:32N 53°34' E 008°33'0 0.0
2015-Aug-08 08:32N 53°34' E 008°33'0 0.0
2015-Aug-08 07:32N 53°34' E 008°33'0 0.0
2015-Aug-08 06:32N 53°34' E 008°33'0 0.0
2015-Aug-08 05:32N 53°34' E 008°33'0 0.0
2015-Aug-08 04:32N 53°34' E 008°33'0 0.0
2015-Aug-08 03:32N 53°34' E 008°33'0 0.0
2015-Aug-08 02:32N 53°34' E 008°33'0 0.0
2015-Aug-08 01:32N 53°34' E 008°33'0 0.0
2015-Aug-08 00:32N 53°34' E 008°33'0 0.0
2015-Aug-07 23:31N 53°34' E 008°33'0 0.0
2015-Aug-07 22:31N 53°34' E 008°33'0 0.0
2015-Aug-07 21:31N 53°34' E 008°33'0 0.0
2015-Aug-07 20:31N 53°34' E 008°33'0 0.0
2015-Aug-07 19:31N 53°34' E 008°33'0 0.0
2015-Aug-07 18:31N 53°34' E 008°33'0 0.0
2015-Aug-07 17:31N 53°34' E 008°33'0 0.0
2015-Aug-07 16:31N 53°34' E 008°33'0 0.0
2015-Aug-07 15:31N 53°34' E 008°33'0 0.0
2015-Aug-07 14:31N 53°34' E 008°33'0 0.0
2015-Aug-07 13:31N 53°34' E 008°33'0 0.0
2015-Aug-07 12:31N 53°34' E 008°33'0 0.0
2015-Aug-07 11:31N 53°34' E 008°33'0 0.0
2015-Aug-07 10:31N 53°34' E 008°33'0 0.0
2015-Aug-07 09:31N 53°34' E 008°33'0 0.0
2015-Aug-07 08:31N 53°34' E 008°33'0 0.0
2015-Aug-07 07:31N 53°34' E 008°33'0 0.0
2015-Aug-07 06:31N 53°34' E 008°33'0 0.0
2015-Aug-07 05:31N 53°34' E 008°33'0 0.0
2015-Aug-07 04:31N 53°34' E 008°33'0 0.0
2015-Aug-07 03:31N 53°34' E 008°33'0 0.0
2015-Aug-07 02:31N 53°34' E 008°33'0 0.0
2015-Aug-07 01:31N 53°34' E 008°33'0 0.0
2015-Aug-07 00:31N 53°34' E 008°33'0 0.0
2015-Aug-06 23:31N 53°34' E 008°33'0 0.0
2015-Aug-06 22:31N 53°34' E 008°33'0 0.0
2015-Aug-06 21:31N 53°34' E 008°33'0 0.0
2015-Aug-06 20:31N 53°34' E 008°33'0 0.0
2015-Aug-06 19:31N 53°34' E 008°33'0 0.0
2015-Aug-06 18:31N 53°34' E 008°33'0 0.0
2015-Aug-06 17:31N 53°34' E 008°33'0 0.0
2015-Aug-06 16:31N 53°34' E 008°33'0 0.0
2015-Aug-06 15:31N 53°34' E 008°33'0 0.0
2015-Aug-06 14:31N 53°34' E 008°33'0 0.0
2015-Aug-06 13:34N 53°34' E 008°33'0 0.0
2015-Aug-06 12:34N 53°34' E 008°33'0 0.0
2015-Aug-06 11:33N 53°34' E 008°33'0 0.0
2015-Aug-06 10:33N 53°34' E 008°33'0 0.0
2015-Aug-06 09:33N 53°34' E 008°33'0 0.0
2015-Aug-06 08:33N 53°34' E 008°33'0 0.0
2015-Aug-06 07:30N 53°34' E 008°33'0 0.0
2015-Aug-06 06:33N 53°34' E 008°33'0 0.0
2015-Aug-06 05:33N 53°34' E 008°33'0 0.0
2015-Aug-06 04:33N 53°34' E 008°33'0 0.0
2015-Aug-06 03:33N 53°34' E 008°33'0 0.0
2015-Aug-06 02:33N 53°34' E 008°33'0 0.0
2015-Aug-06 01:33N 53°34' E 008°33'0 0.0
2015-Aug-06 00:33N 53°34' E 008°33'0 0.0
2015-Aug-05 23:30N 53°34' E 008°33'0 0.0
2015-Aug-05 22:33N 53°34' E 008°33'0 0.0
2015-Aug-05 21:33N 53°34' E 008°33'0 0.0
2015-Aug-05 20:33N 53°34' E 008°33'0 0.0
2015-Aug-05 19:30N 53°34' E 008°33'  

Dump ship's entire track history